createdAt,value
2024-05-09T00:00:46.526Z,74.08
2024-05-09T00:03:14.159Z,74.17
2024-05-09T00:05:42.784Z,74.20
2024-05-09T00:08:10.667Z,74.06
2024-05-09T00:10:39.579Z,74.20
2024-05-09T00:13:08.560Z,74.09
2024-05-09T00:15:36.681Z,74.06
2024-05-09T00:18:06.658Z,74.02
2024-05-09T00:20:38.992Z,74.06
2024-05-09T00:23:13.518Z,74.14
2024-05-09T00:25:44.656Z,74.37
2024-05-09T00:28:13.463Z,74.31
2024-05-09T00:30:40.941Z,74.37
2024-05-09T00:33:09.846Z,74.29
2024-05-09T00:35:38.813Z,74.36
2024-05-09T00:38:06.649Z,74.37
2024-05-09T00:40:41.438Z,74.44
2024-05-09T00:43:11.868Z,74.50
2024-05-09T00:45:39.942Z,74.27
2024-05-09T00:48:09.109Z,74.28
2024-05-09T00:50:40.465Z,74.33
2024-05-09T00:53:10.221Z,74.36
2024-05-09T00:55:37.891Z,74.54
2024-05-09T00:58:05.403Z,74.36
2024-05-09T01:00:38.877Z,74.13
2024-05-09T01:03:10.972Z,74.17
2024-05-09T01:05:40.763Z,74.33
2024-05-09T01:08:08.783Z,74.27
2024-05-09T01:10:37.084Z,74.47
2024-05-09T01:13:05.127Z,74.28
2024-05-09T01:15:32.957Z,74.06
2024-05-09T01:18:01.732Z,74.05
2024-05-09T01:20:39.541Z,74.11
2024-05-09T01:23:10.825Z,74.44
2024-05-09T01:25:38.287Z,74.44
2024-05-09T01:28:05.955Z,74.37
2024-05-09T01:30:36.018Z,74.15
2024-05-09T01:33:07.352Z,74.12
2024-05-09T01:35:36.779Z,74.19
2024-05-09T01:38:04.681Z,74.27
2024-05-09T01:40:37.748Z,74.25
2024-05-09T01:43:08.901Z,74.30
2024-05-09T01:45:38.164Z,74.24
2024-05-09T01:48:06.374Z,74.14
2024-05-09T01:50:39.415Z,73.94
2024-05-09T01:53:10.717Z,73.85
2024-05-09T01:55:38.603Z,74.19
2024-05-09T01:58:06.231Z,74.43
2024-05-09T02:00:39.415Z,74.56
2024-05-09T02:03:12.052Z,74.73
2024-05-09T02:05:43.027Z,74.80
2024-05-09T02:08:17.576Z,74.80
2024-05-09T02:10:46.187Z,74.73
2024-05-09T02:13:13.991Z,74.70
2024-05-09T02:15:41.338Z,74.39
2024-05-09T02:18:09.956Z,74.25
2024-05-09T02:20:38.817Z,74.01
2024-05-09T02:23:07.020Z,73.83
2024-05-09T02:25:34.964Z,73.65
2024-05-09T02:28:02.588Z,73.60
2024-05-09T02:30:38.467Z,73.55
2024-05-09T02:33:10.781Z,73.41
2024-05-09T02:35:40.055Z,73.30
2024-05-09T02:38:09.050Z,73.36
2024-05-09T02:40:38.793Z,73.25
2024-05-09T02:43:08.567Z,73.43
2024-05-09T02:45:37.392Z,73.49
2024-05-09T02:48:05.491Z,73.52
2024-05-09T02:50:38.062Z,73.42
2024-05-09T02:53:08.419Z,73.23
2024-05-09T03:03:33.184Z,73.37
2024-05-09T03:06:01.524Z,73.43
2024-05-09T03:08:28.392Z,73.49
2024-05-09T03:10:55.441Z,73.47
2024-05-09T03:13:22.428Z,73.48
2024-05-09T03:15:49.308Z,73.58
2024-05-09T03:18:16.389Z,73.52
2024-05-09T03:20:43.539Z,73.54
2024-05-09T03:23:10.652Z,73.64
2024-05-09T03:25:38.090Z,73.74
2024-05-09T03:28:05.256Z,73.70
2024-05-09T03:30:39.884Z,73.62
2024-05-09T03:33:14.947Z,73.84
2024-05-09T03:35:42.990Z,73.87
2024-05-09T03:38:09.960Z,73.94
2024-05-09T03:40:46.482Z,74.06
2024-05-09T03:43:13.925Z,74.10
2024-05-09T03:45:42.018Z,74.21
2024-05-09T03:48:09.122Z,74.24
2024-05-09T03:50:36.964Z,74.40
2024-05-09T03:53:04.526Z,74.54
2024-05-09T03:55:31.940Z,74.66
2024-05-09T03:57:59.186Z,74.92
2024-05-09T04:00:34.774Z,75.00
2024-05-09T04:03:07.292Z,74.97
2024-05-09T04:05:37.159Z,75.09
2024-05-09T04:08:05.241Z,75.46
2024-05-09T04:10:34.204Z,75.84
2024-05-09T04:13:03.052Z,75.58
2024-05-09T04:15:30.068Z,75.04
2024-05-09T04:17:56.993Z,74.66
2024-05-09T04:20:33.329Z,74.13
2024-05-09T04:23:06.236Z,74.29
2024-05-09T04:25:33.410Z,74.20
2024-05-09T04:28:00.197Z,73.96
2024-05-09T04:30:37.140Z,73.81
2024-05-09T04:33:08.638Z,73.67
2024-05-09T04:35:37.691Z,73.60
2024-05-09T04:38:04.804Z,73.61
2024-05-09T04:40:35.147Z,73.29
2024-05-09T04:43:12.832Z,73.14
2024-05-09T04:45:39.696Z,72.76
2024-05-09T04:48:07.338Z,72.53
2024-05-09T04:50:38.151Z,72.56
2024-05-09T04:53:08.199Z,72.33
2024-05-09T04:55:38.924Z,72.10
2024-05-09T04:58:09.282Z,71.93
2024-05-09T05:00:38.582Z,71.62
2024-05-09T05:03:09.358Z,71.07
2024-05-09T05:05:39.514Z,70.41
2024-05-09T05:08:13.894Z,69.88
2024-05-09T05:10:41.757Z,69.82
2024-05-09T05:13:15.778Z,70.01
2024-05-09T05:15:43.293Z,69.70
2024-05-09T05:18:11.384Z,69.65
2024-05-09T05:20:38.239Z,69.49
2024-05-09T05:23:12.471Z,69.43
2024-05-09T05:25:40.005Z,69.11
2024-05-09T05:28:07.067Z,68.65
2024-05-09T05:30:36.840Z,68.06
2024-05-09T05:33:04.541Z,67.78
2024-05-09T05:35:31.456Z,68.82
2024-05-09T05:37:58.596Z,69.31
2024-05-09T05:40:33.151Z,69.45
2024-05-09T05:43:07.763Z,69.23
2024-05-09T05:45:38.127Z,69.10
2024-05-09T05:48:06.508Z,68.56
2024-05-09T05:50:36.742Z,67.09
2024-05-09T05:53:05.730Z,67.32
2024-05-09T05:55:32.834Z,67.61
2024-05-09T05:58:00.945Z,68.06
2024-05-09T06:00:34.468Z,68.33
2024-05-09T06:03:05.278Z,67.14
2024-05-09T06:05:33.020Z,66.56
2024-05-09T06:08:13.296Z,66.72
2024-05-09T06:10:50.171Z,66.76
2024-05-09T06:13:23.698Z,66.88
2024-05-09T06:15:50.382Z,67.50
2024-05-09T06:18:17.243Z,67.72
2024-05-09T06:20:45.069Z,66.78
2024-05-09T06:23:12.410Z,65.09
2024-05-09T06:25:39.575Z,64.38
2024-05-09T06:28:06.626Z,64.74
2024-05-09T06:30:39.894Z,63.88
2024-05-09T06:33:10.132Z,62.37
2024-05-09T06:35:41.014Z,62.44
2024-05-09T06:38:08.138Z,62.46
2024-05-09T06:40:38.524Z,62.74
2024-05-09T06:43:18.316Z,62.57
2024-05-09T06:45:53.036Z,61.95
2024-05-09T06:48:22.725Z,61.82
2024-05-09T06:50:49.846Z,60.91
2024-05-09T06:53:17.057Z,60.33
2024-05-09T06:55:46.260Z,60.79
2024-05-09T06:58:15.157Z,60.97
2024-05-09T07:00:42.475Z,60.66
2024-05-09T07:03:11.177Z,60.25
2024-05-09T07:05:38.990Z,59.37
2024-05-09T07:08:06.027Z,59.09
2024-05-09T07:10:35.565Z,58.01
2024-05-09T07:13:09.989Z,57.62
2024-05-09T07:15:37.261Z,57.17
2024-05-09T07:18:22.619Z,55.77
2024-05-09T07:20:50.605Z,55.87
2024-05-09T07:23:18.149Z,55.03
2024-05-09T07:25:45.189Z,53.51
2024-05-09T07:28:16.406Z,53.43
2024-05-09T07:30:43.350Z,53.15
2024-05-09T07:33:17.195Z,53.18
2024-05-09T07:35:44.315Z,52.90
2024-05-09T07:38:11.006Z,50.29
2024-05-09T07:40:38.817Z,50.32
2024-05-09T07:43:09.903Z,49.92
2024-05-09T07:45:48.380Z,49.31
2024-05-09T07:53:39.179Z,46.82
2024-05-09T07:56:10.199Z,45.86
2024-05-09T07:58:38.493Z,45.78
2024-05-09T08:01:07.932Z,45.00
2024-05-09T08:03:34.838Z,44.24
2024-05-09T08:06:01.924Z,44.37
2024-05-09T08:08:28.994Z,43.40
2024-05-09T08:10:56.268Z,43.29
2024-05-09T08:13:23.300Z,42.49
2024-05-09T08:15:51.032Z,42.11
2024-05-09T08:18:18.125Z,42.55
2024-05-09T08:20:47.346Z,42.05
2024-05-09T08:23:14.160Z,41.98
2024-05-09T08:25:43.731Z,42.23
2024-05-09T08:28:10.810Z,41.07
2024-05-09T08:30:38.495Z,41.34
2024-05-09T08:33:06.694Z,40.35
2024-05-09T08:35:35.131Z,41.54
2024-05-09T08:38:03.060Z,41.01
2024-05-09T08:40:36.037Z,40.08
2024-05-09T08:43:08.360Z,40.09
2024-05-09T08:45:37.806Z,39.90
2024-05-09T08:48:07.321Z,39.65
2024-05-09T08:50:38.899Z,39.36
2024-05-09T08:53:07.454Z,39.91
2024-05-09T08:55:37.280Z,39.71
2024-05-09T08:58:06.121Z,39.00
2024-05-09T09:00:37.010Z,38.82
2024-05-09T09:03:06.364Z,38.98
2024-05-09T09:05:33.794Z,38.86
2024-05-09T09:08:02.664Z,39.33
2024-05-09T09:10:32.298Z,39.13
2024-05-09T09:13:03.859Z,38.57
2024-05-09T09:15:30.901Z,37.88
2024-05-09T09:17:58.574Z,38.27
2024-05-09T09:20:33.529Z,38.76
2024-05-09T09:23:03.493Z,39.63
2024-05-09T09:25:32.712Z,39.46
2024-05-09T09:27:59.733Z,39.57
2024-05-09T09:30:35.150Z,39.50
2024-05-09T09:33:08.020Z,39.48
2024-05-09T09:35:35.507Z,39.00
2024-05-09T09:38:03.688Z,38.60
2024-05-09T09:40:35.831Z,37.92
2024-05-09T09:43:08.482Z,37.25
2024-05-09T09:45:35.500Z,37.20
2024-05-09T09:48:04.591Z,36.87
2024-05-09T09:50:34.834Z,36.64
2024-05-09T09:53:03.397Z,36.61
2024-05-09T09:55:31.831Z,36.35
2024-05-09T09:57:58.813Z,36.09
2024-05-09T10:00:32.012Z,36.17
2024-05-09T10:03:00.726Z,36.15
2024-05-09T10:05:36.043Z,36.35
2024-05-09T10:08:06.301Z,36.18
2024-05-09T10:10:34.462Z,35.97
2024-05-09T10:13:07.768Z,34.97
2024-05-09T10:15:50.375Z,36.07
2024-05-09T10:18:24.062Z,36.59
2024-05-09T10:20:53.635Z,36.69
2024-05-09T10:23:27.634Z,35.42
2024-05-09T10:25:58.147Z,34.81
2024-05-09T10:28:28.722Z,35.35
2024-05-09T10:31:08.597Z,35.08
2024-05-09T10:33:41.033Z,35.33
2024-05-09T10:36:18.037Z,35.02
2024-05-09T10:40:26.366Z,35.14
2024-05-09T10:42:59.561Z,35.50
2024-05-09T10:45:27.857Z,34.80
2024-05-09T10:47:55.393Z,34.53
2024-05-09T10:50:28.475Z,34.86
2024-05-09T10:52:59.215Z,34.77
2024-05-09T10:55:27.361Z,34.15
2024-05-09T10:57:54.874Z,34.08
2024-05-09T11:00:27.830Z,34.46
2024-05-09T11:03:01.041Z,34.65
2024-05-09T11:05:28.645Z,35.06
2024-05-09T11:07:56.099Z,34.77
2024-05-09T11:10:27.890Z,34.14
2024-05-09T11:13:01.284Z,33.04
2024-05-09T11:15:41.556Z,33.15
2024-05-09T11:18:24.225Z,33.51
2024-05-09T11:20:53.198Z,33.47
2024-05-09T11:23:26.104Z,33.10
2024-05-09T11:25:58.016Z,33.74
2024-05-09T11:28:26.826Z,33.57
2024-05-09T11:31:07.393Z,33.97
2024-05-09T11:33:43.404Z,34.06
2024-05-09T11:36:11.184Z,32.83
2024-05-09T11:38:38.575Z,33.08
2024-05-09T11:41:05.964Z,33.49
2024-05-09T11:43:33.751Z,33.46
2024-05-09T11:46:02.658Z,34.01
2024-05-09T11:48:30.763Z,34.04
2024-05-09T11:50:58.387Z,33.88
2024-05-09T11:53:25.644Z,32.84
2024-05-09T11:55:53.083Z,33.14
2024-05-09T11:58:23.552Z,32.17
2024-05-09T12:00:51.065Z,32.20
2024-05-09T12:03:18.631Z,32.70
2024-05-09T12:05:46.096Z,33.08
2024-05-09T12:08:14.077Z,33.02
2024-05-09T12:10:41.748Z,32.49
2024-05-09T12:13:09.898Z,32.16
2024-05-09T12:15:38.370Z,33.03
2024-05-09T12:18:07.157Z,33.06
2024-05-09T12:20:38.442Z,32.76
2024-05-09T12:23:08.828Z,32.78
2024-05-09T12:25:38.209Z,33.35
2024-05-09T12:28:06.116Z,33.10
2024-05-09T12:30:39.890Z,33.41
2024-05-09T12:33:11.254Z,34.34
2024-05-09T12:35:39.865Z,34.25
2024-05-09T12:38:07.290Z,34.02
2024-05-09T12:40:37.646Z,33.09
2024-05-09T12:43:07.637Z,32.79
2024-05-09T12:45:35.958Z,32.43
2024-05-09T12:48:07.110Z,32.43
2024-05-09T12:50:35.061Z,32.29
2024-05-09T12:53:03.791Z,32.93
2024-05-09T12:55:40.527Z,31.77
2024-05-09T12:58:18.844Z,31.90
2024-05-09T13:00:47.011Z,32.16
2024-05-09T13:03:14.966Z,31.95
2024-05-09T13:05:44.643Z,31.53
2024-05-09T13:08:12.911Z,31.14
2024-05-09T13:10:40.580Z,31.13
2024-05-09T13:13:11.438Z,31.49
2024-05-09T13:15:39.100Z,31.74
2024-05-09T13:18:06.943Z,31.21
2024-05-09T13:20:36.156Z,31.18
2024-05-09T13:23:05.752Z,31.11
2024-05-09T13:25:34.446Z,30.62
2024-05-09T13:28:05.328Z,30.53
2024-05-09T13:30:40.083Z,30.53
2024-05-09T13:33:11.518Z,30.54
2024-05-09T13:35:45.661Z,30.54
2024-05-09T13:38:20.034Z,30.80
2024-05-09T13:40:48.302Z,31.21
2024-05-09T13:43:16.095Z,31.63
2024-05-09T13:45:48.623Z,31.89
2024-05-09T13:48:16.269Z,31.67
2024-05-09T13:50:43.799Z,31.69
2024-05-09T13:53:11.698Z,32.42
2024-05-09T13:55:40.696Z,32.21
2024-05-09T13:58:09.324Z,31.60
2024-05-09T14:00:45.927Z,31.10
2024-05-09T14:03:18.092Z,31.35
2024-05-09T14:05:47.633Z,31.72
2024-05-09T14:08:17.707Z,32.22
2024-05-09T14:10:46.621Z,32.21
2024-05-09T14:13:14.791Z,32.42
2024-05-09T14:15:42.296Z,32.46
2024-05-09T14:18:13.106Z,32.66
2024-05-09T14:20:42.683Z,32.21
2024-05-09T14:23:13.835Z,32.01
2024-05-09T14:25:43.288Z,31.60
2024-05-09T14:28:12.513Z,30.94
2024-05-09T14:30:41.458Z,31.00
2024-05-09T14:33:09.668Z,31.32
2024-05-09T14:35:38.450Z,31.74
2024-05-09T14:38:07.066Z,31.29
2024-05-09T14:40:41.324Z,31.10
2024-05-09T14:43:15.164Z,31.25
2024-05-09T14:45:44.114Z,31.08
2024-05-09T14:48:13.295Z,31.18
2024-05-09T14:50:41.241Z,30.83
2024-05-09T14:53:10.068Z,30.53
2024-05-09T14:55:41.996Z,30.64
2024-05-09T14:58:11.070Z,30.65
2024-05-09T15:00:45.627Z,31.18
2024-05-09T15:03:22.734Z,31.22
2024-05-09T15:05:51.225Z,31.24
2024-05-09T15:08:19.412Z,31.74
2024-05-09T15:10:49.615Z,31.79
2024-05-09T15:13:18.806Z,31.88
2024-05-09T15:15:46.751Z,31.83
2024-05-09T15:18:14.670Z,31.91
2024-05-09T15:20:43.462Z,31.79
2024-05-09T15:23:18.270Z,31.61
2024-05-09T15:25:46.217Z,31.56
2024-05-09T15:28:17.658Z,31.51
2024-05-09T15:30:46.785Z,31.39
2024-05-09T15:33:15.206Z,31.47
2024-05-09T15:35:47.606Z,31.38
2024-05-09T15:38:15.992Z,31.49
2024-05-09T15:40:43.696Z,31.27
2024-05-09T15:43:13.495Z,31.77
2024-05-09T15:45:44.589Z,32.00
2024-05-09T15:48:14.657Z,31.79
2024-05-09T15:50:42.984Z,31.71
2024-05-09T15:53:14.849Z,31.88
2024-05-09T15:55:42.608Z,31.81
2024-05-09T15:58:10.275Z,32.08
2024-05-09T16:00:41.514Z,32.38
2024-05-09T16:03:11.774Z,32.78
2024-05-09T16:05:46.150Z,32.96
2024-05-09T16:08:14.506Z,33.12
2024-05-09T16:10:47.802Z,33.42
2024-05-09T16:13:19.690Z,33.47
2024-05-09T16:15:51.870Z,33.25
2024-05-09T16:18:19.605Z,33.32
2024-05-09T16:20:49.482Z,33.15
2024-05-09T16:23:17.939Z,33.43
2024-05-09T16:25:47.503Z,33.24
2024-05-09T16:28:19.212Z,32.81
2024-05-09T16:30:46.874Z,32.70
2024-05-09T16:33:20.744Z,32.72
2024-05-09T16:35:51.102Z,32.28
2024-05-09T16:38:27.510Z,32.47
2024-05-09T16:40:55.183Z,32.57
2024-05-09T16:43:27.659Z,32.39
2024-05-09T16:45:55.173Z,32.26
2024-05-09T16:48:25.557Z,32.42
2024-05-09T16:50:52.905Z,32.49
2024-05-09T16:53:20.911Z,32.31
2024-05-09T16:55:48.302Z,32.34
2024-05-09T16:58:20.780Z,32.44
2024-05-09T17:00:51.071Z,32.70
2024-05-09T17:03:20.980Z,32.64
2024-05-09T17:05:50.379Z,32.78
2024-05-09T17:08:18.181Z,32.95
2024-05-09T17:10:46.439Z,33.05
2024-05-09T17:13:14.158Z,33.13
2024-05-09T17:15:44.166Z,33.42
2024-05-09T17:18:11.568Z,33.55
2024-05-09T17:20:38.912Z,33.57
2024-05-09T17:23:13.321Z,34.19
2024-05-09T17:25:41.627Z,34.33
2024-05-09T17:28:09.146Z,34.61
2024-05-09T17:30:40.783Z,34.86
2024-05-09T17:33:12.930Z,35.65
2024-05-09T17:35:40.868Z,36.54
2024-05-09T17:38:08.384Z,36.93
2024-05-09T17:40:40.349Z,37.46
2024-05-09T17:43:09.615Z,37.83
2024-05-09T17:45:43.497Z,38.28
2024-05-09T17:48:11.798Z,39.17
2024-05-09T17:50:43.471Z,39.52
2024-05-09T17:53:11.315Z,39.84
2024-05-09T17:55:41.563Z,40.25
2024-05-09T17:58:10.232Z,40.59
2024-05-09T18:00:42.303Z,40.71
2024-05-09T18:03:11.858Z,41.22
2024-05-09T18:05:40.825Z,42.04
2024-05-09T18:08:08.724Z,42.56
2024-05-09T18:10:39.120Z,43.07
2024-05-09T18:13:11.077Z,43.92
2024-05-09T18:15:39.390Z,44.41
2024-05-09T18:18:07.757Z,44.85
2024-05-09T18:20:42.243Z,45.23
2024-05-09T18:23:14.167Z,45.55
2024-05-09T18:25:42.679Z,46.36
2024-05-09T18:28:10.133Z,46.77
2024-05-09T18:30:38.010Z,47.01
2024-05-09T18:33:08.049Z,47.25
2024-05-09T18:35:36.917Z,47.26
2024-05-09T18:38:10.631Z,47.17
2024-05-09T18:40:40.262Z,47.57
2024-05-09T18:43:09.447Z,47.82
2024-05-09T18:45:38.224Z,47.92
2024-05-09T18:48:09.147Z,47.91
2024-05-09T18:50:40.923Z,48.10
2024-05-09T18:53:12.584Z,48.23
2024-05-09T18:55:44.290Z,48.68
2024-05-09T18:58:12.070Z,49.08
2024-05-09T19:00:43.896Z,49.41
2024-05-09T19:03:14.548Z,49.79
2024-05-09T19:05:44.392Z,50.44
2024-05-09T19:08:14.505Z,50.81
2024-05-09T19:10:42.025Z,50.94
2024-05-09T19:13:12.531Z,51.23
2024-05-09T19:15:42.061Z,51.57
2024-05-09T19:18:11.723Z,51.82
2024-05-09T19:20:39.656Z,52.26
2024-05-09T19:23:07.652Z,52.30
2024-05-09T19:25:35.677Z,52.81
2024-05-09T19:28:04.263Z,53.23
2024-05-09T19:30:38.847Z,53.67
2024-05-09T19:33:12.064Z,54.14
2024-05-09T19:35:40.723Z,54.52
2024-05-09T19:38:08.123Z,54.71
2024-05-09T19:40:35.993Z,54.81
2024-05-09T19:43:05.099Z,54.85
2024-05-09T19:45:35.090Z,55.11
2024-05-09T19:48:04.154Z,55.14
2024-05-09T19:50:39.984Z,55.25
2024-05-09T19:53:12.552Z,55.52
2024-05-09T19:55:40.962Z,55.73
2024-05-09T19:58:09.221Z,55.84
2024-05-09T20:00:39.472Z,55.85
2024-05-09T20:03:10.194Z,56.21
2024-05-09T20:05:38.564Z,56.28
2024-05-09T20:08:07.006Z,56.52
2024-05-09T20:10:35.926Z,56.75
2024-05-09T20:13:06.209Z,56.98
2024-05-09T20:15:35.484Z,57.13
2024-05-09T20:18:03.551Z,57.37
2024-05-09T20:20:37.659Z,57.73
2024-05-09T20:23:09.891Z,57.94
2024-05-09T20:25:37.359Z,58.22
2024-05-09T20:28:05.935Z,58.18
2024-05-09T20:30:34.592Z,58.38
2024-05-09T20:33:04.389Z,58.56
2024-05-09T20:35:33.212Z,58.69
2024-05-09T20:38:01.377Z,58.84
2024-05-09T20:40:33.834Z,58.80
2024-05-09T20:43:05.479Z,58.75
2024-05-09T20:45:33.293Z,58.53
2024-05-09T20:48:01.053Z,58.53
2024-05-09T20:50:36.646Z,58.63
2024-05-09T20:53:12.880Z,58.52
2024-05-09T20:55:41.515Z,58.57
2024-05-09T20:58:09.698Z,58.66
2024-05-09T21:00:40.957Z,58.81
2024-05-09T21:03:12.685Z,58.77
2024-05-09T21:05:41.064Z,59.03
2024-05-09T21:08:08.846Z,59.03
2024-05-09T21:10:36.818Z,59.10
2024-05-09T21:13:05.648Z,59.25
2024-05-09T21:15:34.031Z,59.45
2024-05-09T21:18:01.554Z,59.66
2024-05-09T21:20:32.454Z,59.86
2024-05-09T21:23:04.142Z,59.91
2024-05-09T21:25:31.603Z,60.13
2024-05-09T21:27:59.105Z,60.04
2024-05-09T21:30:37.052Z,60.01
2024-05-09T21:33:09.834Z,60.01
2024-05-09T21:35:41.023Z,60.13
2024-05-09T21:38:08.568Z,60.11
2024-05-09T21:40:37.179Z,60.25
2024-05-09T21:43:06.454Z,60.06
2024-05-09T21:45:34.356Z,60.10
2024-05-09T21:48:05.438Z,60.05
2024-05-09T21:50:39.607Z,60.19
2024-05-09T21:53:10.866Z,60.25
2024-05-09T21:55:38.342Z,60.37
2024-05-09T21:58:05.868Z,60.51
2024-05-09T22:00:38.012Z,60.76
2024-05-09T22:03:07.563Z,60.93
2024-05-09T22:05:36.071Z,61.04
2024-05-09T22:08:03.674Z,60.94
2024-05-09T22:10:34.570Z,60.98
2024-05-09T22:13:07.171Z,60.86
2024-05-09T22:15:35.661Z,60.80
2024-05-09T22:18:04.326Z,60.89
2024-05-09T22:20:37.134Z,60.86
2024-05-09T22:23:07.661Z,61.05
2024-05-09T22:25:36.093Z,60.98
2024-05-09T22:28:03.824Z,61.06
2024-05-09T22:30:36.426Z,61.13
2024-05-09T22:33:08.278Z,61.28
2024-05-09T22:35:36.543Z,61.37
2024-05-09T22:38:04.063Z,61.31
2024-05-09T22:40:42.055Z,61.46
2024-05-09T22:43:23.303Z,61.41
2024-05-09T22:45:53.958Z,61.49
2024-05-09T22:48:21.897Z,61.33
2024-05-09T22:50:49.417Z,61.31
2024-05-09T22:53:16.849Z,61.30
2024-05-09T22:57:30.808Z,61.34
2024-05-09T22:59:58.116Z,61.50
2024-05-09T23:02:25.612Z,61.53
2024-05-09T23:04:53.219Z,61.74
2024-05-09T23:07:20.699Z,62.01
2024-05-09T23:09:48.137Z,62.34
2024-05-09T23:12:18.466Z,62.55
2024-05-09T23:14:46.178Z,62.76
2024-05-09T23:17:13.555Z,62.84
2024-05-09T23:19:40.938Z,63.11
2024-05-09T23:22:08.427Z,62.99
2024-05-09T23:24:35.878Z,62.99
2024-05-09T23:27:03.434Z,63.21
2024-05-09T23:29:30.988Z,63.01
2024-05-09T23:31:58.239Z,63.17
2024-05-09T23:34:25.719Z,63.27
2024-05-09T23:36:53.230Z,63.40
2024-05-09T23:39:20.601Z,63.53
2024-05-09T23:41:47.941Z,63.63
2024-05-09T23:44:15.253Z,63.74
2024-05-09T23:46:42.734Z,63.85
2024-05-09T23:49:11.307Z,63.91
2024-05-09T23:51:38.841Z,63.93
2024-05-09T23:54:08.396Z,63.88
2024-05-09T23:56:35.810Z,63.99
2024-05-09T23:59:03.142Z,63.97
